Time;durP1;ratioP1;P1;durP2;ratioP2;P2;SDS_P1;SDS_P2;PMS_P1;PMS_P2;Temp;Humidity;BMP_temperature;BMP_pressure;BME280_temperature;BME280_humidity;BME280_pressure;Samples;Min_cycle;Max_cycle;Signal;HPM_P1;HPM_P2
2023/03/22 00:00:35;;;;;;;;;;;;;;;9.20;64.26;92646.38;2048672;70;20546;-75
2023/03/22 00:03:01;;;;;;;;;;;;;;;9.22;63.96;92647.25;2048624;70;20502;-76
2023/03/22 00:05:29;;;;;;;;;;;;;;;9.18;63.77;92654.69;2048754;70;20058;-74
2023/03/22 00:07:57;;;;;;;;;;;;;;;9.12;63.98;92652.94;2048837;69;20429;-74
2023/03/22 00:10:24;;;;;;;;;;;;;;;8.94;64.57;92643.34;2048765;69;20043;-76
2023/03/22 00:12:51;;;;;;;;;;;;;;;8.99;64.06;92641.53;2048830;70;20145;-75
2023/03/22 00:15:21;;;;;;;;;;;;;;;9.05;64.13;92647.53;2048679;70;20059;-75
2023/03/22 00:17:51;;;;;;;;;;;;;;;9.09;63.86;92642.19;2048846;69;20406;-75
2023/03/22 00:20:24;;;;;;;;;;;;;;;8.97;64.18;92641.38;2048630;70;20067;-76
2023/03/22 00:23:16;;;;;;;;;;;;;;;8.90;65.35;92635.38;2061738;69;20054;-75
2023/03/22 00:25:43;;;;;;;;;;;;;;;8.83;65.51;92641.19;2049614;69;20148;-75
2023/03/22 00:28:09;;;;;;;;;;;;;;;8.66;65.06;92645.00;2049670;70;20254;-75
2023/03/22 00:30:36;;;;;;;;;;;;;;;8.76;65.31;92639.31;2062812;69;20059;-75
2023/03/22 00:33:03;;;;;;;;;;;;;;;8.71;65.90;92635.50;2050304;69;20502;-75
2023/03/22 00:35:30;;;;;;;;;;;;;;;8.75;64.99;92637.84;2062799;69;20085;-74
2023/03/22 00:38:05;;;;;;;;;;;;;;;8.61;66.47;92638.38;2049771;69;20058;-75
2023/03/22 00:40:32;;;;;;;;;;;;;;;8.68;64.76;92635.97;2066017;69;20057;-76
2023/03/22 00:42:58;;;;;;;;;;;;;;;8.68;64.73;92644.41;2069078;69;20049;-74
2023/03/22 00:45:24;;;;;;;;;;;;;;;8.54;65.99;92633.69;2069049;69;20143;-75
2023/03/22 00:47:50;;;;;;;;;;;;;;;8.52;64.77;92630.75;2068755;69;20055;-74
2023/03/22 00:50:16;;;;;;;;;;;;;;;8.50;64.73;92629.88;2064956;69;20049;-75
2023/03/22 00:52:42;;;;;;;;;;;;;;;8.53;64.61;92637.84;2068588;69;20137;-72
2023/03/22 00:55:09;;;;;;;;;;;;;;;8.42;65.09;92629.31;2065058;69;20049;-74
2023/03/22 00:57:39;;;;;;;;;;;;;;;8.37;66.62;92629.06;2068518;69;20564;-74
2023/03/22 01:00:12;;;;;;;;;;;;;;;8.35;65.87;92634.50;2068702;69;20436;-75
2023/03/22 01:02:39;;;;;;;;;;;;;;;8.29;66.71;92631.31;2064906;69;20055;-77
2023/03/22 01:05:08;;;;;;;;;;;;;;;8.40;66.16;92624.31;2068683;69;20053;-73
2023/03/22 01:07:40;;;;;;;;;;;;;;;8.37;65.43;92623.44;2065076;69;20146;-76
2023/03/22 01:10:07;;;;;;;;;;;;;;;8.24;65.92;92615.50;2064916;69;20127;-75
2023/03/22 01:12:37;;;;;;;;;;;;;;;8.25;65.40;92619.06;2068340;69;20084;-75
2023/03/22 01:15:04;;;;;;;;;;;;;;;8.21;65.94;92619.53;2068593;69;20072;-76
2023/03/22 01:17:30;;;;;;;;;;;;;;;8.28;65.52;92615.78;2068389;69;20057;-75
2023/03/22 01:19:59;;;;;;;;;;;;;;;8.18;66.75;92612.31;2064792;69;20045;-75
2023/03/22 01:22:29;;;;;;;;;;;;;;;8.07;66.47;92608.09;2064741;69;20060;-75
2023/03/22 01:25:09;;;;;;;;;;;;;;;8.10;66.36;92603.34;2068384;69;20616;-76
2023/03/22 01:27:39;;;;;;;;;;;;;;;8.11;67.19;92599.94;2064602;69;20072;-75
2023/03/22 01:30:06;;;;;;;;;;;;;;;8.13;66.25;92599.34;2068193;69;20157;-76
2023/03/22 01:32:52;;;;;;;;;;;;;;;8.17;65.83;92598.88;2068161;69;20495;-76
2023/03/22 01:35:23;;;;;;;;;;;;;;;8.04;66.30;92594.50;2068047;69;20056;-74
2023/03/22 01:37:53;;;;;;;;;;;;;;;7.97;65.80;92601.03;2068398;69;20065;-75
2023/03/22 01:40:19;;;;;;;;;;;;;;;7.96;65.62;92600.28;2057181;69;20047;-76
2023/03/22 01:42:46;;;;;;;;;;;;;;;7.98;65.34;92600.44;2061291;69;20055;-74
2023/03/22 01:45:22;;;;;;;;;;;;;;;7.92;65.82;92602.81;2061215;69;20047;-73
2023/03/22 01:47:58;;;;;;;;;;;;;;;7.78;66.04;92605.38;2048693;70;20092;-77
2023/03/22 01:50:25;;;;;;;;;;;;;;;7.78;65.94;92596.25;2058941;69;20079;-79
2023/03/22 01:52:52;;;;;;;;;;;;;;;7.76;66.23;92593.31;2049358;69;20054;-79
2023/03/22 01:55:24;;;;;;;;;;;;;;;7.72;66.97;92590.94;2061830;69;20125;-73
2023/03/22 01:58:10;;;;;;;;;;;;;;;7.69;66.36;92585.78;2060005;69;20168;-77
2023/03/22 02:00:48;;;;;;;;;;;;;;;7.72;67.09;92587.41;2049697;69;20461;-77
2023/03/22 02:03:50;;;;;;;;;;;;;;;7.71;66.44;92592.28;2062090;69;20181;-77
2023/03/22 02:06:17;;;;;;;;;;;;;;;7.47;68.08;92587.78;2057977;69;20521;-78
2023/03/22 02:08:45;;;;;;;;;;;;;;;7.57;66.70;92594.13;2049069;69;20161;-77
2023/03/22 02:11:16;;;;;;;;;;;;;;;7.54;67.07;92598.81;2049055;70;20055;-79
2023/03/22 02:13:46;;;;;;;;;;;;;;;7.55;66.90;92607.97;2062043;69;20063;-79
2023/03/22 02:16:40;;;;;;;;;;;;;;;7.53;66.43;92602.22;2061892;69;20075;-78
2023/03/22 02:19:20;;;;;;;;;;;;;;;7.35;67.27;92605.22;2048990;70;20055;-79
2023/03/22 02:21:51;;;;;;;;;;;;;;;7.31;67.75;92613.31;2048928;69;20058;-76
2023/03/22 02:24:22;;;;;;;;;;;;;;;7.31;67.21;92609.78;2062039;69;20059;-78
2023/03/22 02:27:08;;;;;;;;;;;;;;;7.44;67.63;92606.53;2049058;69;20051;-76
2023/03/22 02:29:46;;;;;;;;;;;;;;;7.39;66.96;92607.56;2060407;69;20088;-79
2023/03/22 02:32:16;;;;;;;;;;;;;;;7.45;67.28;92593.97;2061431;69;20064;-77
2023/03/22 02:34:48;;;;;;;;;;;;;;;7.45;67.09;92596.78;2061683;69;20062;-76
2023/03/22 02:37:53;;;;;;;;;;;;;;;7.54;66.62;92589.69;2061198;69;20073;-79
2023/03/22 02:40:21;;;;;;;;;;;;;;;7.50;66.96;92592.94;2044398;70;20066;-80
2023/03/22 02:42:47;;;;;;;;;;;;;;;7.59;67.44;92591.44;2054804;70;20077;-75
2023/03/22 02:45:13;;;;;;;;;;;;;;;7.59;67.34;92594.97;2052041;70;20471;-77
2023/03/22 02:47:48;;;;;;;;;;;;;;;7.39;67.22;92591.50;2051643;70;20069;-74
2023/03/22 02:50:19;;;;;;;;;;;;;;;7.66;66.61;92590.53;2057096;69;20480;-74
2023/03/22 02:52:58;;;;;;;;;;;;;;;7.61;67.73;92595.13;2054769;69;20067;-78
2023/03/22 02:55:33;;;;;;;;;;;;;;;7.62;67.07;92596.59;2054920;70;20094;-79
2023/03/22 02:57:59;;;;;;;;;;;;;;;7.69;67.46;92586.53;2054525;70;20449;-76
2023/03/22 03:00:26;;;;;;;;;;;;;;;7.69;67.66;92594.19;2052329;70;20512;-80
2023/03/22 03:02:53;;;;;;;;;;;;;;;7.78;67.30;92596.97;2055430;69;20113;-77
2023/03/22 03:05:30;;;;;;;;;;;;;;;7.86;66.46;92594.72;2055982;70;20042;-78
2023/03/22 03:08:02;;;;;;;;;;;;;;;7.65;67.35;92594.66;2056368;70;20054;-80
2023/03/22 03:10:34;;;;;;;;;;;;;;;7.61;67.19;92589.53;2059833;69;20493;-78
2023/03/22 03:13:01;;;;;;;;;;;;;;;7.66;67.37;92584.22;2064554;69;20573;-79
2023/03/22 03:15:27;;;;;;;;;;;;;;;7.70;66.87;92590.81;2064497;69;20053;-78
2023/03/22 03:18:12;;;;;;;;;;;;;;;7.66;66.92;92589.81;2067408;69;20503;-79
2023/03/22 03:20:51;;;;;;;;;;;;;;;7.57;67.13;92582.91;2064432;69;20056;-76
2023/03/22 03:23:35;;;;;;;;;;;;;;;7.60;67.25;92590.84;2066363;69;20062;-78
2023/03/22 03:26:09;;;;;;;;;;;;;;;7.62;66.54;92582.59;2066126;69;20056;-78
2023/03/22 03:28:54;;;;;;;;;;;;;;;7.48;66.47;92570.41;2062569;69;20076;-78
2023/03/22 03:31:29;;;;;;;;;;;;;;;7.35;67.28;92591.22;2065314;69;20052;-78
2023/03/22 03:34:05;;;;;;;;;;;;;;;7.28;66.97;92583.69;2065372;69;20057;-79
2023/03/22 03:36:36;;;;;;;;;;;;;;;7.22;66.54;92586.06;2061768;69;20054;-78
2023/03/22 03:39:08;;;;;;;;;;;;;;;7.18;66.36;92594.19;2064399;69;20072;-78
2023/03/22 03:41:38;;;;;;;;;;;;;;;7.15;67.46;92589.78;2045647;70;20545;-77
2023/03/22 03:44:06;;;;;;;;;;;;;;;7.18;67.82;92580.19;2045826;69;20529;-78
2023/03/22 03:46:33;;;;;;;;;;;;;;;7.24;67.24;92588.28;2045458;69;20059;-78
2023/03/22 03:49:11;;;;;;;;;;;;;;;7.27;66.25;92589.91;2045702;69;20057;-75
2023/03/22 03:51:56;;;;;;;;;;;;;;;7.24;66.68;92594.63;2045541;69;20068;-73
2023/03/22 03:54:27;;;;;;;;;;;;;;;7.02;68.03;92593.03;2045215;70;20056;-78
2023/03/22 03:56:53;;;;;;;;;;;;;;;7.05;67.98;92586.97;2058444;69;20122;-78
2023/03/22 03:59:19;;;;;;;;;;;;;;;7.00;67.78;92592.88;2045438;69;20505;-77
2023/03/22 04:01:51;;;;;;;;;;;;;;;7.10;67.47;92588.75;2045212;70;20054;-74
2023/03/22 04:04:26;;;;;;;;;;;;;;;7.05;67.65;92595.38;2058284;69;20051;-79
2023/03/22 04:07:04;;;;;;;;;;;;;;;7.05;67.84;92592.56;2045377;69;20043;-79
2023/03/22 04:09:39;;;;;;;;;;;;;;;6.62;69.91;92588.75;2058290;69;20051;-79
2023/03/22 04:12:30;;;;;;;;;;;;;;;6.86;67.90;92596.13;2041971;70;20055;-78
2023/03/22 04:15:17;;;;;;;;;;;;;;;6.86;67.92;92587.72;2045655;70;20118;-78
2023/03/22 04:17:52;;;;;;;;;;;;;;;6.92;68.17;92590.25;2058688;69;20048;-79
2023/03/22 04:20:19;;;;;;;;;;;;;;;7.00;68.22;92582.41;2045637;69;20087;-76
2023/03/22 04:22:47;;;;;;;;;;;;;;;7.06;67.99;92584.94;2058531;69;20051;-78
2023/03/22 04:25:29;;;;;;;;;;;;;;;7.05;67.71;92577.84;2045537;69;20131;-75
2023/03/22 04:28:03;;;;;;;;;;;;;;;7.07;67.86;92586.41;2045542;69;20215;-78
2023/03/22 04:30:34;;;;;;;;;;;;;;;7.07;67.65;92583.59;2055611;69;20054;-79
2023/03/22 04:33:38;;;;;;;;;;;;;;;6.96;68.99;92587.72;2051702;69;20052;-78
2023/03/22 04:36:09;;;;;;;;;;;;;;;7.07;67.61;92589.19;2045450;70;20503;-78
2023/03/22 04:38:46;;;;;;;;;;;;;;;7.04;67.53;92593.16;2057114;69;20086;-79
2023/03/22 04:41:21;;;;;;;;;;;;;;;6.99;67.81;92588.63;2045557;69;20067;-80
2023/03/22 04:43:51;;;;;;;;;;;;;;;6.97;68.44;92580.81;2045633;69;20162;-78
2023/03/22 04:46:21;;;;;;;;;;;;;;;6.99;68.09;92588.63;2045619;69;20055;-78
2023/03/22 04:49:02;;;;;;;;;;;;;;;7.03;67.85;92586.84;2057980;69;20087;-79
2023/03/22 04:51:34;;;;;;;;;;;;;;;7.07;67.65;92592.72;2045304;69;20062;-78
2023/03/22 04:54:29;;;;;;;;;;;;;;;6.82;68.79;92584.63;2046236;69;20052;-79
2023/03/22 04:56:57;;;;;;;;;;;;;;;6.86;68.44;92587.00;2045276;70;20091;-78
2023/03/22 04:59:26;;;;;;;;;;;;;;;6.89;68.53;92594.22;2044902;70;20054;-77
2023/03/22 05:01:52;;;;;;;;;;;;;;;6.84;69.22;92592.44;2057692;69;20441;-77
2023/03/22 05:04:23;;;;;;;;;;;;;;;6.87;67.82;92588.47;2045314;69;20483;-77
2023/03/22 05:06:57;;;;;;;;;;;;;;;6.99;67.89;92591.41;2058116;69;20062;-75
2023/03/22 05:09:36;;;;;;;;;;;;;;;6.97;68.42;92592.00;2058000;69;20146;-77
2023/03/22 05:12:10;;;;;;;;;;;;;;;7.02;68.15;92595.84;2057916;69;20102;-78
2023/03/22 05:15:04;;;;;;;;;;;;;;;6.98;67.41;92590.69;2049212;69;20043;-77
2023/03/22 05:17:35;;;;;;;;;;;;;;;7.01;68.62;92595.09;2046056;69;20055;-76
2023/03/22 05:20:08;;;;;;;;;;;;;;;7.13;68.07;92595.22;2045982;69;20114;-78
2023/03/22 05:22:39;;;;;;;;;;;;;;;7.05;67.92;92600.97;2046000;69;20190;-78
2023/03/22 05:25:07;;;;;;;;;;;;;;;7.08;68.71;92599.06;2042609;70;20134;-79
2023/03/22 05:27:43;;;;;;;;;;;;;;;7.07;68.29;92601.13;2045809;70;20067;-79
2023/03/22 05:30:31;;;;;;;;;;;;;;;6.97;68.32;92594.06;2045773;70;20054;-79
2023/03/22 05:33:05;;;;;;;;;;;;;;;7.09;67.16;92600.53;2045789;69;20066;-79
2023/03/22 05:35:38;;;;;;;;;;;;;;;7.02;67.92;92590.97;2058985;69;20151;-79
2023/03/22 05:38:06;;;;;;;;;;;;;;;6.84;68.86;92595.25;2046247;70;20442;-75
2023/03/22 05:40:43;;;;;;;;;;;;;;;6.95;67.83;92597.44;2047760;69;20138;-72
2023/03/22 05:43:10;;;;;;;;;;;;;;;6.99;67.33;92594.22;2060758;69;20146;-73
2023/03/22 05:45:40;;;;;;;;;;;;;;;6.89;68.15;92591.41;2059733;69;20059;-72
2023/03/22 05:48:17;;;;;;;;;;;;;;;6.83;68.11;92594.53;2060566;69;20199;-73
2023/03/22 05:50:43;;;;;;;;;;;;;;;6.91;67.80;92591.56;2048474;69;20078;-72
2023/03/22 05:53:10;;;;;;;;;;;;;;;6.89;67.62;92594.22;2062544;69;20054;-73
2023/03/22 05:55:59;;;;;;;;;;;;;;;6.88;67.30;92596.28;2047367;69;20455;-74
2023/03/22 05:58:29;;;;;;;;;;;;;;;6.81;67.95;92599.22;2058861;69;20079;-74
2023/03/22 06:01:16;;;;;;;;;;;;;;;6.82;67.55;92609.09;2058846;69;20055;-73
2023/03/22 06:03:44;;;;;;;;;;;;;;;6.81;67.44;92610.41;2045692;70;20071;-75
2023/03/22 06:06:31;;;;;;;;;;;;;;;6.69;67.79;92610.28;2047257;69;20048;-78
2023/03/22 06:09:05;;;;;;;;;;;;;;;6.79;67.94;92607.47;2059268;69;20090;-72
2023/03/22 06:11:34;;;;;;;;;;;;;;;6.83;67.61;92610.56;2061276;69;20196;-73
2023/03/22 06:14:00;;;;;;;;;;;;;;;6.81;67.64;92610.41;2061631;69;20087;-73
2023/03/22 06:16:39;;;;;;;;;;;;;;;6.73;67.47;92607.75;2061612;69;20481;-78
2023/03/22 06:19:05;;;;;;;;;;;;;;;6.73;67.50;92610.56;2047558;70;20044;-72
2023/03/22 06:21:31;;;;;;;;;;;;;;;6.63;68.35;92615.41;2062586;69;20039;-72
2023/03/22 06:23:56;;;;;;;;;;;;;;;6.68;68.36;92608.78;2059735;69;20055;-73
2023/03/22 06:26:23;;;;;;;;;;;;;;;6.69;68.16;92615.13;2060039;69;20143;-75
2023/03/22 06:28:48;;;;;;;;;;;;;;;6.60;68.30;92614.53;2058767;69;20525;-76
2023/03/22 06:31:14;;;;;;;;;;;;;;;6.58;68.96;92605.97;2058391;69;20067;-73
2023/03/22 06:33:50;;;;;;;;;;;;;;;6.64;68.31;92611.28;2058783;69;20082;-78
2023/03/22 06:36:39;;;;;;;;;;;;;;;6.64;69.08;92605.69;2046556;69;20058;-77
2023/03/22 06:39:11;;;;;;;;;;;;;;;6.70;67.99;92608.94;2058646;69;20063;-76
2023/03/22 06:41:39;;;;;;;;;;;;;;;6.67;68.14;92612.91;2058416;69;20055;-77
2023/03/22 06:44:04;;;;;;;;;;;;;;;6.70;68.70;92611.75;2058354;69;20074;-75
2023/03/22 06:46:54;;;;;;;;;;;;;;;6.75;67.50;92613.50;2049184;69;20427;-77
2023/03/22 06:49:45;;;;;;;;;;;;;;;6.83;68.04;92625.31;2053847;70;20065;-76
2023/03/22 06:52:20;;;;;;;;;;;;;;;6.67;67.97;92617.78;2051278;70;20061;-76
2023/03/22 06:54:45;;;;;;;;;;;;;;;6.82;67.85;92611.88;2051245;70;20058;-76
2023/03/22 06:57:12;;;;;;;;;;;;;;;6.77;68.52;92613.66;2051282;70;20054;-76
2023/03/22 06:59:37;;;;;;;;;;;;;;;6.72;68.73;92616.75;2054107;70;20506;-75
2023/03/22 07:02:03;;;;;;;;;;;;;;;6.89;67.45;92616.59;2053834;70;20082;-77
2023/03/22 07:04:29;;;;;;;;;;;;;;;6.88;67.25;92612.34;2051434;70;20150;-74
2023/03/22 07:06:55;;;;;;;;;;;;;;;6.88;67.37;92615.88;2053294;70;20070;-75
2023/03/22 07:09:22;;;;;;;;;;;;;;;6.93;67.09;92611.31;2055206;70;20078;-77
2023/03/22 07:11:49;;;;;;;;;;;;;;;6.83;67.93;92622.50;2051432;70;20426;-73
2023/03/22 07:14:15;;;;;;;;;;;;;;;6.85;67.94;92619.84;2034973;70;20518;-75
2023/03/22 07:16:53;;;;;;;;;;;;;;;6.91;67.59;92619.53;2051208;70;20047;-77
2023/03/22 07:19:19;;;;;;;;;;;;;;;6.97;67.70;92616.47;2037989;70;20086;-77
2023/03/22 07:21:45;;;;;;;;;;;;;;;7.01;67.29;92625.91;2051372;70;20046;-81
2023/03/22 07:24:12;;;;;;;;;;;;;;;7.15;66.82;92612.19;2051284;70;20407;-79
2023/03/22 07:26:39;;;;;;;;;;;;;;;7.09;66.64;92604.06;2053549;69;20559;-79
2023/03/22 07:29:05;;;;;;;;;;;;;;;7.13;66.57;92609.22;2058443;69;20201;-78
2023/03/22 07:31:35;;;;;;;;;;;;;;;7.19;65.78;92611.72;2058280;69;20154;-78
2023/03/22 07:34:08;;;;;;;;;;;;;;;7.44;67.79;92611.38;2058372;69;20509;-78
2023/03/22 07:36:46;;;;;;;;;;;;;;;8.09;68.72;92615.88;2058553;69;20087;-74
2023/03/22 07:39:12;;;;;;;;;;;;;;;8.44;67.08;92610.56;2058246;69;20079;-78
2023/03/22 07:41:42;;;;;;;;;;;;;;;8.88;67.09;92609.97;2058429;69;20058;-76
2023/03/22 07:44:31;;;;;;;;;;;;;;;8.91;64.78;92608.03;2056008;69;20514;-77
2023/03/22 07:47:15;;;;;;;;;;;;;;;9.39;65.45;92610.44;2045373;70;20082;-77
2023/03/22 07:49:49;;;;;;;;;;;;;;;9.78;63.02;92607.22;2058282;69;20055;-76
2023/03/22 07:52:19;;;;;;;;;;;;;;;10.05;62.25;92609.59;2058326;69;20055;-77
2023/03/22 07:54:44;;;;;;;;;;;;;;;10.25;60.76;92600.94;2058261;69;20430;-77
2023/03/22 07:57:11;;;;;;;;;;;;;;;10.72;60.82;92603.69;2036687;69;20392;-77
2023/03/22 07:59:43;;;;;;;;;;;;;;;11.05;59.25;92601.41;2058269;69;20471;-76
2023/03/22 08:02:09;;;;;;;;;;;;;;;11.40;57.22;92606.19;2058223;69;20086;-77
2023/03/22 08:04:44;;;;;;;;;;;;;;;11.63;57.56;92610.97;2045519;70;20507;-78
2023/03/22 08:07:17;;;;;;;;;;;;;;;11.61;54.78;92605.97;2058410;69;20051;-75
2023/03/22 08:09:44;;;;;;;;;;;;;;;12.17;54.84;92613.25;2058390;69;20047;-77
2023/03/22 08:12:10;;;;;;;;;;;;;;;12.07;54.88;92609.16;2058103;69;20066;-77
2023/03/22 08:14:37;;;;;;;;;;;;;;;12.45;53.17;92616.09;2044974;70;20060;-77
2023/03/22 08:17:07;;;;;;;;;;;;;;;12.88;51.56;92615.50;2058409;69;20451;-75
2023/03/22 08:19:33;;;;;;;;;;;;;;;13.06;50.59;92616.41;2039336;69;20101;-76
2023/03/22 08:21:59;;;;;;;;;;;;;;;13.33;51.21;92614.91;2058290;69;20063;-76
2023/03/22 08:24:50;;;;;;;;;;;;;;;13.34;49.24;92614.28;2055515;69;20097;-76
2023/03/22 08:27:25;;;;;;;;;;;;;;;13.96;49.54;92615.09;2055621;69;20071;-76
2023/03/22 08:29:52;;;;;;;;;;;;;;;14.26;48.07;92600.91;2058285;69;20051;-78
2023/03/22 08:32:19;;;;;;;;;;;;;;;14.59;47.70;92603.84;2045234;70;20057;-73
2023/03/22 08:34:45;;;;;;;;;;;;;;;14.86;45.87;92600.06;2058320;69;20162;-76
2023/03/22 08:37:11;;;;;;;;;;;;;;;15.03;44.88;92595.09;2058268;69;20150;-74
2023/03/22 08:39:39;;;;;;;;;;;;;;;15.37;45.41;92588.03;2058343;69;20044;-75
2023/03/22 08:42:30;;;;;;;;;;;;;;;15.73;44.37;92582.41;2041269;70;20149;-74
2023/03/22 08:44:56;;;;;;;;;;;;;;;15.57;44.37;92585.28;2058180;69;20491;-74
2023/03/22 08:47:26;;;;;;;;;;;;;;;16.37;42.43;92582.75;2058069;69;20067;-74
2023/03/22 08:49:56;;;;;;;;;;;;;;;16.53;40.95;92575.53;2058259;69;20079;-73
2023/03/22 08:52:29;;;;;;;;;;;;;;;16.47;40.25;92575.31;2058400;69;20506;-73
2023/03/22 08:55:00;;;;;;;;;;;;;;;16.77;40.53;92567.22;2058214;69;20050;-73
2023/03/22 08:57:49;;;;;;;;;;;;;;;17.41;41.36;92575.06;2045263;70;20073;-73
2023/03/22 09:00:33;;;;;;;;;;;;;;;16.92;40.08;92562.75;2050065;69;20062;-74
2023/03/22 09:03:11;;;;;;;;;;;;;;;17.25;39.34;92564.59;2058112;69;20047;-74
2023/03/22 09:05:38;;;;;;;;;;;;;;;17.19;38.40;92566.50;2058111;69;20052;-73
2023/03/22 09:08:05;;;;;;;;;;;;;;;17.43;37.85;92564.47;2058190;69;20078;-74
2023/03/22 09:10:38;;;;;;;;;;;;;;;17.61;38.45;92560.78;2058125;69;20047;-74
2023/03/22 09:13:04;;;;;;;;;;;;;;;17.80;38.04;92557.16;2058134;69;20523;-74
2023/03/22 09:15:31;;;;;;;;;;;;;;;18.09;37.36;92564.44;2058071;69;20052;-73
2023/03/22 09:18:19;;;;;;;;;;;;;;;18.13;35.97;92558.88;2045232;69;20058;-74
2023/03/22 09:20:45;;;;;;;;;;;;;;;18.00;36.17;92560.63;2058327;69;20059;-74
2023/03/22 09:23:12;;;;;;;;;;;;;;;19.04;34.59;92551.53;2058387;69;20056;-74
2023/03/22 09:25:38;;;;;;;;;;;;;;;19.67;35.03;92544.63;2059528;69;20106;-77
2023/03/22 09:28:03;;;;;;;;;;;;;;;19.32;33.80;92537.28;2062576;69;20055;-76
2023/03/22 09:30:29;;;;;;;;;;;;;;;19.69;33.45;92524.69;2061062;69;20059;-77
2023/03/22 09:32:55;;;;;;;;;;;;;;;20.58;34.83;92530.28;2059577;69;20063;-74
2023/03/22 09:35:21;;;;;;;;;;;;;;;19.54;33.93;92523.59;2045944;70;20051;-77
2023/03/22 09:37:55;;;;;;;;;;;;;;;20.45;33.91;92526.41;2058427;69;20067;-77
2023/03/22 09:40:24;;;;;;;;;;;;;;;21.02;33.01;92514.00;2046819;69;20553;-76
2023/03/22 09:42:51;;;;;;;;;;;;;;;20.41;33.19;92512.75;2058194;69;20044;-74
2023/03/22 09:45:24;;;;;;;;;;;;;;;20.96;32.30;92502.44;2058025;69;20116;-77
2023/03/22 09:47:55;;;;;;;;;;;;;;;20.62;33.92;92496.03;2057929;69;20058;-77
2023/03/22 09:50:25;;;;;;;;;;;;;;;21.19;30.87;92511.44;2045181;70;20051;-76
2023/03/22 09:52:51;;;;;;;;;;;;;;;22.32;31.27;92497.56;2045443;69;20506;-76
2023/03/22 09:55:20;;;;;;;;;;;;;;;22.17;30.78;92493.03;2057943;69;20044;-77
2023/03/22 09:58:06;;;;;;;;;;;;;;;22.21;28.88;92482.34;2057902;69;20460;-77
2023/03/22 10:00:39;;;;;;;;;;;;;;;23.47;28.88;92491.75;2045216;69;20150;-76
2023/03/22 10:03:21;;;;;;;;;;;;;;;23.36;28.70;92481.59;2045078;69;20186;-77
2023/03/22 10:06:16;;;;;;;;;;;;;;;22.79;26.72;92475.22;2045022;70;20058;-75
2023/03/22 10:08:50;;;;;;;;;;;;;;;23.48;26.41;92475.97;2056795;69;20180;-76
2023/03/22 10:11:21;;;;;;;;;;;;;;;23.25;25.54;92459.94;2045867;69;20055;-75
2023/03/22 10:14:00;;;;;;;;;;;;;;;24.27;27.19;92463.66;2045618;69;20052;-75
2023/03/22 10:16:28;;;;;;;;;;;;;;;24.14;25.89;92459.97;2045481;70;20056;-76
2023/03/22 10:18:58;;;;;;;;;;;;;;;24.09;26.10;92455.63;2045628;70;20058;-74
2023/03/22 10:21:24;;;;;;;;;;;;;;;25.16;26.33;92451.13;2045897;70;20058;-77
2023/03/22 10:23:56;;;;;;;;;;;;;;;25.87;24.68;92444.75;2058569;69;20047;-77
2023/03/22 10:26:28;;;;;;;;;;;;;;;25.24;25.53;92440.34;2058570;69;20051;-76
2023/03/22 10:28:59;;;;;;;;;;;;;;;26.15;24.19;92444.00;2045882;70;20051;-74
2023/03/22 10:31:26;;;;;;;;;;;;;;;27.04;23.88;92443.03;2058397;69;20058;-76
2023/03/22 10:34:01;;;;;;;;;;;;;;;26.52;24.79;92441.78;2045781;69;20056;-74
2023/03/22 10:36:33;;;;;;;;;;;;;;;26.51;21.81;92443.94;2045652;70;20079;-73
2023/03/22 10:39:19;;;;;;;;;;;;;;;26.32;23.04;92439.63;2058477;69;20142;-74
2023/03/22 10:41:45;;;;;;;;;;;;;;;26.46;23.04;92445.41;2057453;69;20086;-73
2023/03/22 10:44:17;;;;;;;;;;;;;;;28.22;21.10;92444.41;2046171;70;20086;-75
2023/03/22 10:46:43;;;;;;;;;;;;;;;27.00;21.18;92435.09;2045659;69;20494;-73
2023/03/22 10:49:19;;;;;;;;;;;;;;;29.12;22.13;92436.22;2045626;69;20059;-74
2023/03/22 10:51:47;;;;;;;;;;;;;;;29.54;20.37;92436.38;2045706;69;20075;-72
2023/03/22 10:54:20;;;;;;;;;;;;;;;31.18;20.75;92434.31;2045603;70;20155;-73
2023/03/22 10:56:46;;;;;;;;;;;;;;;31.47;19.06;92431.53;2058432;69;20136;-75
2023/03/22 10:59:32;;;;;;;;;;;;;;;31.81;18.25;92427.13;2058199;69;20047;-76
2023/03/22 11:01:57;;;;;;;;;;;;;;;29.07;19.69;92426.16;2045413;70;20062;-75
2023/03/22 11:04:22;;;;;;;;;;;;;;;29.49;20.52;92415.44;2045531;70;20048;-75
2023/03/22 11:06:50;;;;;;;;;;;;;;;33.42;18.50;92419.31;2058445;69;20496;-75
2023/03/22 11:09:17;;;;;;;;;;;;;;;34.41;17.18;92412.56;2045592;70;20051;-75
2023/03/22 11:11:50;;;;;;;;;;;;;;;35.08;16.61;92413.19;2045542;70;20051;-76
2023/03/22 11:14:19;;;;;;;;;;;;;;;36.11;15.18;92399.06;2045409;70;20384;-75
2023/03/22 11:16:44;;;;;;;;;;;;;;;37.34;15.22;92391.63;2045457;69;20051;-76
2023/03/22 11:19:13;;;;;;;;;;;;;;;36.88;15.62;92398.06;2045363;70;20051;-75
2023/03/22 11:21:40;;;;;;;;;;;;;;;38.84;13.31;92400.66;2045545;70;20442;-76
2023/03/22 11:24:07;;;;;;;;;;;;;;;35.37;13.90;92382.88;2045642;70;20456;-75
2023/03/22 11:26:34;;;;;;;;;;;;;;;38.64;13.58;92384.72;2058399;69;20051;-75
2023/03/22 11:29:10;;;;;;;;;;;;;;;40.18;13.12;92383.22;2045632;69;20055;-75
2023/03/22 11:31:56;;;;;;;;;;;;;;;41.04;11.77;92378.25;2045287;70;20145;-75
2023/03/22 11:34:23;;;;;;;;;;;;;;;39.23;12.40;92374.41;2045359;69;20066;-75
2023/03/22 11:36:55;;;;;;;;;;;;;;;42.44;12.09;92377.66;2045456;70;20487;-74
2023/03/22 11:39:22;;;;;;;;;;;;;;;37.68;13.30;92365.16;2045455;70;20443;-74
2023/03/22 11:41:47;;;;;;;;;;;;;;;39.79;12.67;92358.84;2045624;69;20052;-74
2023/03/22 11:44:16;;;;;;;;;;;;;;;41.36;12.08;92361.50;2045436;69;20059;-76
2023/03/22 11:46:48;;;;;;;;;;;;;;;40.77;11.79;92349.59;2045231;70;20138;-76
2023/03/22 11:49:15;;;;;;;;;;;;;;;41.28;11.76;92349.50;2058292;69;20495;-75
2023/03/22 11:51:41;;;;;;;;;;;;;;;41.87;11.40;92349.50;2055431;69;20055;-76
2023/03/22 11:54:11;;;;;;;;;;;;;;;43.81;10.81;92348.31;2058250;69;20058;-76
2023/03/22 11:56:40;;;;;;;;;;;;;;;41.94;11.52;92346.88;2046214;69;20055;-76
2023/03/22 11:59:06;;;;;;;;;;;;;;;39.24;12.13;92343.44;2045322;70;20446;-76
2023/03/22 12:01:36;;;;;;;;;;;;;;;37.30;12.15;92326.56;2058187;69;20100;-76
2023/03/22 12:04:04;;;;;;;;;;;;;;;39.75;12.33;92329.63;2045294;70;20058;-76
2023/03/22 12:06:35;;;;;;;;;;;;;;;44.08;10.38;92332.31;2045477;70;20059;-76
2023/03/22 12:09:17;;;;;;;;;;;;;;;42.56;10.46;92322.88;2058350;69;20044;-76
2023/03/22 12:11:45;;;;;;;;;;;;;;;40.22;11.32;92309.28;2045542;69;20095;-76
2023/03/22 12:14:18;;;;;;;;;;;;;;;37.99;13.11;92316.72;2045450;70;20051;-74
2023/03/22 12:16:49;;;;;;;;;;;;;;;40.35;12.29;92310.00;2045287;70;20064;-75
2023/03/22 12:19:36;;;;;;;;;;;;;;;40.01;11.80;92309.03;2045432;69;20070;-73
2023/03/22 12:22:07;;;;;;;;;;;;;;;39.80;11.35;92300.63;2045237;70;20055;-74
2023/03/22 12:24:33;;;;;;;;;;;;;;;40.58;11.28;92297.59;2045359;70;20070;-74
2023/03/22 12:27:09;;;;;;;;;;;;;;;41.13;11.47;92291.34;2045113;70;20052;-74
2023/03/22 12:29:35;;;;;;;;;;;;;;;40.80;11.54;92277.16;2045452;70;20079;-75
2023/03/22 12:32:11;;;;;;;;;;;;;;;37.89;11.95;92268.69;2045156;69;20048;-74
2023/03/22 12:34:42;;;;;;;;;;;;;;;38.66;11.91;92269.22;2058110;69;20135;-75
2023/03/22 12:37:14;;;;;;;;;;;;;;;40.22;12.33;92270.97;2045399;69;20047;-76
2023/03/22 12:39:44;;;;;;;;;;;;;;;40.73;11.46;92258.41;2058078;69;20067;-76
2023/03/22 12:42:30;;;;;;;;;;;;;;;41.69;10.76;92270.88;2059126;69;20529;-75
2023/03/22 12:45:02;;;;;;;;;;;;;;;44.87;10.46;92275.25;2068241;69;20079;-75
2023/03/22 12:47:30;;;;;;;;;;;;;;;42.57;10.79;92256.97;2068286;69;20060;-75
2023/03/22 12:49:59;;;;;;;;;;;;;;;44.92;9.41;92263.06;2068265;69;20049;-74
2023/03/22 12:52:41;;;;;;;;;;;;;;;41.27;10.66;92242.50;2065099;69;20069;-75
2023/03/22 12:55:09;;;;;;;;;;;;;;;41.65;10.21;92250.44;2068390;69;20055;-76
2023/03/22 12:57:37;;;;;;;;;;;;;;;40.23;10.92;92242.91;2068620;69;20041;-76
2023/03/22 13:00:12;;;;;;;;;;;;;;;40.47;10.69;92237.09;2068358;69;20449;-75
2023/03/22 13:02:38;;;;;;;;;;;;;;;43.32;10.16;92245.13;2068339;69;20065;-75
2023/03/22 13:05:08;;;;;;;;;;;;;;;43.70;10.14;92237.97;2065089;69;20084;-75
2023/03/22 13:07:39;;;;;;;;;;;;;;;45.11;8.50;92239.28;2068453;69;20041;-75
2023/03/22 13:10:38;;;;;;;;;;;;;;;44.81;9.20;92228.22;2068416;69;20084;-75
2023/03/22 13:13:15;;;;;;;;;;;;;;;45.04;9.06;92230.19;2065618;69;20198;-75
2023/03/22 13:15:58;;;;;;;;;;;;;;;42.75;10.32;92221.75;2068717;69;20110;-75
2023/03/22 13:18:38;;;;;;;;;;;;;;;42.87;10.00;92214.97;2068267;69;20111;-76